sensor_id;sensor_type;location;lat;lon;timestamp;pressure;altitude;pressure_sealevel;temperature;humidity
72096;BME280;59968;51.084;16.748;2022-12-31T00:01:09;99896.66;;;8.49;70.55
72096;BME280;59968;51.084;16.748;2022-12-31T00:03:38;99891.66;;;8.49;70.40
72096;BME280;59968;51.084;16.748;2022-12-31T00:09:16;99887.13;;;8.54;70.38
72096;BME280;59968;51.084;16.748;2022-12-31T00:11:44;99893.02;;;8.54;70.46
72096;BME280;59968;51.084;16.748;2022-12-31T00:14:11;99894.08;;;8.57;70.41
72096;BME280;59968;51.084;16.748;2022-12-31T00:16:41;99895.41;;;8.59;70.26
72096;BME280;59968;51.084;16.748;2022-12-31T00:19:10;99891.61;;;8.61;70.27
72096;BME280;59968;51.084;16.748;2022-12-31T00:21:38;99888.29;;;8.64;70.33
72096;BME280;59968;51.084;16.748;2022-12-31T00:24:06;99882.66;;;8.66;70.22
72096;BME280;59968;51.084;16.748;2022-12-31T00:26:34;99887.81;;;8.68;70.08
72096;BME280;59968;51.084;16.748;2022-12-31T00:29:03;99882.89;;;8.70;70.03
72096;BME280;59968;51.084;16.748;2022-12-31T00:31:33;99878.98;;;8.72;70.01
72096;BME280;59968;51.084;16.748;2022-12-31T00:34:00;99877.42;;;8.73;69.85
72096;BME280;59968;51.084;16.748;2022-12-31T00:36:36;99875.05;;;8.76;69.86
72096;BME280;59968;51.084;16.748;2022-12-31T00:39:06;99878.83;;;8.79;69.89
72096;BME280;59968;51.084;16.748;2022-12-31T00:41:33;99884.30;;;8.82;69.92
72096;BME280;59968;51.084;16.748;2022-12-31T00:44:01;99889.89;;;8.85;70.09
72096;BME280;59968;51.084;16.748;2022-12-31T00:46:29;99897.58;;;8.91;70.17
72096;BME280;59968;51.084;16.748;2022-12-31T00:48:57;99899.45;;;8.97;70.15
72096;BME280;59968;51.084;16.748;2022-12-31T00:51:25;99896.71;;;9.04;70.36
72096;BME280;59968;51.084;16.748;2022-12-31T00:53:54;99898.27;;;9.11;70.23
72096;BME280;59968;51.084;16.748;2022-12-31T00:56:25;99901.89;;;9.16;70.29
72096;BME280;59968;51.084;16.748;2022-12-31T00:58:53;99897.91;;;9.22;70.47
72096;BME280;59968;51.084;16.748;2022-12-31T01:01:22;99904.63;;;9.28;70.42
72096;BME280;59968;51.084;16.748;2022-12-31T01:03:54;99908.94;;;9.35;70.45
72096;BME280;59968;51.084;16.748;2022-12-31T01:06:23;99906.41;;;9.41;70.44
72096;BME280;59968;51.084;16.748;2022-12-31T01:08:51;99896.11;;;9.46;70.53
72096;BME280;59968;51.084;16.748;2022-12-31T01:11:20;99889.00;;;9.50;70.57
72096;BME280;59968;51.084;16.748;2022-12-31T01:14:15;99887.63;;;9.54;70.70
72096;BME280;59968;51.084;16.748;2022-12-31T01:16:48;99881.67;;;9.60;70.65
72096;BME280;59968;51.084;16.748;2022-12-31T01:19:21;99878.11;;;9.64;70.55
72096;BME280;59968;51.084;16.748;2022-12-31T01:21:51;99880.20;;;9.66;70.44
72096;BME280;59968;51.084;16.748;2022-12-31T01:24:19;99877.96;;;9.66;70.42
72096;BME280;59968;51.084;16.748;2022-12-31T01:26:48;99875.89;;;9.65;70.35
72096;BME280;59968;51.084;16.748;2022-12-31T01:29:17;99875.33;;;9.65;70.26
72096;BME280;59968;51.084;16.748;2022-12-31T01:31:44;99875.89;;;9.66;70.20
72096;BME280;59968;51.084;16.748;2022-12-31T01:34:12;99885.79;;;9.64;70.04
72096;BME280;59968;51.084;16.748;2022-12-31T01:36:39;99887.45;;;9.62;69.99
72096;BME280;59968;51.084;16.748;2022-12-31T01:39:07;99897.17;;;9.61;70.03
72096;BME280;59968;51.084;16.748;2022-12-31T01:41:42;99901.02;;;9.60;70.13
72096;BME280;59968;51.084;16.748;2022-12-31T01:46:51;99904.38;;;9.59;70.00
72096;BME280;59968;51.084;16.748;2022-12-31T01:49:34;99908.77;;;9.59;70.02
72096;BME280;59968;51.084;16.748;2022-12-31T01:52:08;99922.13;;;9.56;70.02
72096;BME280;59968;51.084;16.748;2022-12-31T01:54:41;99925.98;;;9.54;70.05
72096;BME280;59968;51.084;16.748;2022-12-31T01:57:10;99927.92;;;9.54;70.01
72096;BME280;59968;51.084;16.748;2022-12-31T01:59:38;99929.28;;;9.54;70.15
72096;BME280;59968;51.084;16.748;2022-12-31T02:02:06;99928.77;;;9.54;70.13
72096;BME280;59968;51.084;16.748;2022-12-31T02:04:33;99926.02;;;9.54;70.14
72096;BME280;59968;51.084;16.748;2022-12-31T02:07:06;99928.10;;;9.56;70.20
72096;BME280;59968;51.084;16.748;2022-12-31T02:09:36;99928.38;;;9.58;70.29
72096;BME280;59968;51.084;16.748;2022-12-31T02:12:06;99930.70;;;9.59;70.43
72096;BME280;59968;51.084;16.748;2022-12-31T02:14:40;99930.67;;;9.60;70.48
72096;BME280;59968;51.084;16.748;2022-12-31T02:25:49;99931.57;;;9.72;70.32
72096;BME280;59968;51.084;16.748;2022-12-31T02:31:33;99928.97;;;9.81;70.21
72096;BME280;59968;51.084;16.748;2022-12-31T02:34:17;99932.34;;;9.83;70.25
72096;BME280;59968;51.084;16.748;2022-12-31T02:36:49;99934.19;;;9.87;70.11
72096;BME280;59968;51.084;16.748;2022-12-31T02:39:19;99932.68;;;9.89;70.18
72096;BME280;59968;51.084;16.748;2022-12-31T02:41:49;99940.86;;;9.92;70.07
72096;BME280;59968;51.084;16.748;2022-12-31T02:44:30;99950.99;;;9.94;70.01
72096;BME280;59968;51.084;16.748;2022-12-31T02:52:57;99953.65;;;9.92;69.90
72096;BME280;59968;51.084;16.748;2022-12-31T03:00:52;99947.00;;;9.91;69.72
72096;BME280;59968;51.084;16.748;2022-12-31T03:03:40;99943.14;;;9.88;69.78
72096;BME280;59968;51.084;16.748;2022-12-31T03:06:07;99947.13;;;9.86;69.85
72096;BME280;59968;51.084;16.748;2022-12-31T03:08:35;99947.77;;;9.85;69.87
72096;BME280;59968;51.084;16.748;2022-12-31T03:11:22;99950.71;;;9.84;69.74
72096;BME280;59968;51.084;16.748;2022-12-31T03:14:07;99948.14;;;9.89;69.63
72096;BME280;59968;51.084;16.748;2022-12-31T03:16:34;99947.79;;;9.89;69.62
72096;BME280;59968;51.084;16.748;2022-12-31T03:19:03;99952.02;;;9.91;69.59
72096;BME280;59968;51.084;16.748;2022-12-31T03:21:49;99951.95;;;9.92;69.65
72096;BME280;59968;51.084;16.748;2022-12-31T03:24:35;99948.38;;;9.87;69.49
72096;BME280;59968;51.084;16.748;2022-12-31T03:27:20;99965.15;;;9.95;69.44
72096;BME280;59968;51.084;16.748;2022-12-31T03:29:47;99971.36;;;9.95;69.44
72096;BME280;59968;51.084;16.748;2022-12-31T03:32:14;99973.95;;;9.95;69.38
72096;BME280;59968;51.084;16.748;2022-12-31T03:34:41;99979.74;;;9.96;69.44
72096;BME280;59968;51.084;16.748;2022-12-31T03:37:08;99982.73;;;9.97;69.46
72096;BME280;59968;51.084;16.748;2022-12-31T03:39:34;99983.36;;;9.97;69.45
72096;BME280;59968;51.084;16.748;2022-12-31T03:42:02;99987.19;;;9.97;69.45
72096;BME280;59968;51.084;16.748;2022-12-31T03:44:29;99984.20;;;9.99;69.54
72096;BME280;59968;51.084;16.748;2022-12-31T03:46:56;99991.70;;;10.00;69.57
72096;BME280;59968;51.084;16.748;2022-12-31T03:49:24;99988.20;;;10.00;69.60
72096;BME280;59968;51.084;16.748;2022-12-31T03:51:51;99983.90;;;10.00;69.65
72096;BME280;59968;51.084;16.748;2022-12-31T03:54:19;99982.48;;;10.02;69.65
72096;BME280;59968;51.084;16.748;2022-12-31T03:56:46;99983.98;;;10.00;69.86
72096;BME280;59968;51.084;16.748;2022-12-31T03:59:15;99976.48;;;10.01;69.92
72096;BME280;59968;51.084;16.748;2022-12-31T04:01:43;99972.59;;;10.02;69.96
72096;BME280;59968;51.084;16.748;2022-12-31T04:04:10;99968.91;;;10.02;70.04
72096;BME280;59968;51.084;16.748;2022-12-31T04:06:36;99961.36;;;10.03;70.07
72096;BME280;59968;51.084;16.748;2022-12-31T04:09:04;99956.05;;;10.05;70.14
72096;BME280;59968;51.084;16.748;2022-12-31T04:11:30;99963.75;;;10.07;70.25
72096;BME280;59968;51.084;16.748;2022-12-31T04:13:57;99963.61;;;10.10;70.26
72096;BME280;59968;51.084;16.748;2022-12-31T04:16:25;99961.58;;;10.12;70.26
72096;BME280;59968;51.084;16.748;2022-12-31T04:18:52;99947.46;;;10.15;70.23
72096;BME280;59968;51.084;16.748;2022-12-31T04:21:19;99945.56;;;10.16;70.26
72096;BME280;59968;51.084;16.748;2022-12-31T04:23:46;99938.63;;;10.16;70.26
72096;BME280;59968;51.084;16.748;2022-12-31T04:26:13;99933.95;;;10.14;70.34
72096;BME280;59968;51.084;16.748;2022-12-31T04:28:40;99937.05;;;10.12;70.47
72096;BME280;59968;51.084;16.748;2022-12-31T04:31:07;99936.14;;;10.11;70.54
72096;BME280;59968;51.084;16.748;2022-12-31T04:33:33;99949.91;;;10.11;70.71
72096;BME280;59968;51.084;16.748;2022-12-31T04:36:01;99960.07;;;10.13;70.75
72096;BME280;59968;51.084;16.748;2022-12-31T04:38:28;99965.81;;;10.16;70.69
72096;BME280;59968;51.084;16.748;2022-12-31T04:40:55;99971.86;;;10.19;70.67
72096;BME280;59968;51.084;16.748;2022-12-31T04:43:41;99969.73;;;10.20;70.70
72096;BME280;59968;51.084;16.748;2022-12-31T04:46:08;99971.60;;;10.19;70.74
72096;BME280;59968;51.084;16.748;2022-12-31T04:48:35;99965.83;;;10.20;70.84
72096;BME280;59968;51.084;16.748;2022-12-31T04:51:02;99962.34;;;10.21;70.91
72096;BME280;59968;51.084;16.748;2022-12-31T04:53:30;99968.27;;;10.22;71.15
72096;BME280;59968;51.084;16.748;2022-12-31T04:55:57;99972.47;;;10.23;71.26
72096;BME280;59968;51.084;16.748;2022-12-31T04:58:24;99974.45;;;10.25;71.41
72096;BME280;59968;51.084;16.748;2022-12-31T05:00:52;99972.45;;;10.27;71.48
72096;BME280;59968;51.084;16.748;2022-12-31T05:03:22;99969.84;;;10.29;71.71
72096;BME280;59968;51.084;16.748;2022-12-31T05:05:49;99971.06;;;10.31;71.85
72096;BME280;59968;51.084;16.748;2022-12-31T05:08:17;99961.33;;;10.36;71.92
72096;BME280;59968;51.084;16.748;2022-12-31T05:10:46;99960.90;;;10.40;72.00
72096;BME280;59968;51.084;16.748;2022-12-31T05:13:14;99957.28;;;10.45;72.01
72096;BME280;59968;51.084;16.748;2022-12-31T05:15:42;99953.23;;;10.49;71.99
72096;BME280;59968;51.084;16.748;2022-12-31T05:18:09;99947.89;;;10.52;71.96
72096;BME280;59968;51.084;16.748;2022-12-31T05:20:36;99954.71;;;10.55;71.86
72096;BME280;59968;51.084;16.748;2022-12-31T05:23:03;99957.99;;;10.57;71.73
72096;BME280;59968;51.084;16.748;2022-12-31T05:25:30;99953.33;;;10.54;71.71
72096;BME280;59968;51.084;16.748;2022-12-31T05:27:57;99962.39;;;10.53;71.78
72096;BME280;59968;51.084;16.748;2022-12-31T05:30:24;99965.33;;;10.51;71.87
72096;BME280;59968;51.084;16.748;2022-12-31T05:32:52;99972.38;;;10.51;72.04
72096;BME280;59968;51.084;16.748;2022-12-31T05:35:19;99970.98;;;10.51;72.11
72096;BME280;59968;51.084;16.748;2022-12-31T05:37:46;99975.17;;;10.51;72.23
72096;BME280;59968;51.084;16.748;2022-12-31T05:40:13;99968.23;;;10.51;72.32
72096;BME280;59968;51.084;16.748;2022-12-31T05:42:40;99964.99;;;10.50;72.33
72096;BME280;59968;51.084;16.748;2022-12-31T05:45:07;99963.41;;;10.51;72.47
72096;BME280;59968;51.084;16.748;2022-12-31T05:47:35;99959.21;;;10.51;72.70
72096;BME280;59968;51.084;16.748;2022-12-31T05:50:01;99952.23;;;10.46;73.05
72096;BME280;59968;51.084;16.748;2022-12-31T05:52:29;99963.14;;;10.54;73.23
72096;BME280;59968;51.084;16.748;2022-12-31T05:54:55;99963.89;;;10.59;73.34
72096;BME280;59968;51.084;16.748;2022-12-31T05:57:22;99958.96;;;10.61;73.35
72096;BME280;59968;51.084;16.748;2022-12-31T05:59:52;99965.07;;;10.66;73.30
72096;BME280;59968;51.084;16.748;2022-12-31T06:02:20;99966.59;;;10.69;73.55
72096;BME280;59968;51.084;16.748;2022-12-31T06:04:47;99971.09;;;10.70;73.73
72096;BME280;59968;51.084;16.748;2022-12-31T06:07:14;99976.73;;;10.72;73.96
72096;BME280;59968;51.084;16.748;2022-12-31T06:09:41;99974.54;;;10.75;74.14
72096;BME280;59968;51.084;16.748;2022-12-31T06:12:08;99969.00;;;10.78;74.29
72096;BME280;59968;51.084;16.748;2022-12-31T06:14:35;99955.50;;;10.76;74.43
72096;BME280;59968;51.084;16.748;2022-12-31T06:17:08;99968.68;;;10.84;74.45
72096;BME280;59968;51.084;16.748;2022-12-31T06:19:35;99973.35;;;10.87;74.68
72096;BME280;59968;51.084;16.748;2022-12-31T06:22:02;99981.30;;;10.88;74.73
72096;BME280;59968;51.084;16.748;2022-12-31T06:24:29;99996.92;;;10.92;74.56
72096;BME280;59968;51.084;16.748;2022-12-31T06:26:56;99992.05;;;10.93;74.58
72096;BME280;59968;51.084;16.748;2022-12-31T06:29:23;99994.33;;;10.96;74.50
72096;BME280;59968;51.084;16.748;2022-12-31T06:31:51;99976.95;;;10.88;74.50
72096;BME280;59968;51.084;16.748;2022-12-31T06:34:18;99989.05;;;10.99;74.60
72096;BME280;59968;51.084;16.748;2022-12-31T06:36:45;99998.20;;;11.00;74.64
72096;BME280;59968;51.084;16.748;2022-12-31T06:39:12;99996.27;;;11.02;74.69
72096;BME280;59968;51.084;16.748;2022-12-31T06:41:39;99991.48;;;11.04;74.65
72096;BME280;59968;51.084;16.748;2022-12-31T06:44:07;99988.06;;;11.05;74.52
72096;BME280;59968;51.084;16.748;2022-12-31T06:46:34;99990.48;;;11.04;74.56
72096;BME280;59968;51.084;16.748;2022-12-31T06:49:01;99981.54;;;11.01;74.47
72096;BME280;59968;51.084;16.748;2022-12-31T06:51:27;99983.66;;;11.00;74.49
72096;BME280;59968;51.084;16.748;2022-12-31T06:53:54;99986.38;;;10.98;74.58
72096;BME280;59968;51.084;16.748;2022-12-31T06:56:24;99990.45;;;10.97;74.91
72096;BME280;59968;51.084;16.748;2022-12-31T06:59:00;99996.04;;;11.00;75.06
72096;BME280;59968;51.084;16.748;2022-12-31T07:07:11;100002.55;;;11.16;75.41
72096;BME280;59968;51.084;16.748;2022-12-31T07:10:06;99994.33;;;11.21;75.38
72096;BME280;59968;51.084;16.748;2022-12-31T07:18:46;100014.22;;;11.26;75.43
72096;BME280;59968;51.084;16.748;2022-12-31T07:21:21;100013.98;;;11.27;75.35
72096;BME280;59968;51.084;16.748;2022-12-31T07:23:50;100014.09;;;11.27;75.36
72096;BME280;59968;51.084;16.748;2022-12-31T07:40:45;100021.03;;;11.43;75.29
72096;BME280;59968;51.084;16.748;2022-12-31T07:46:21;100015.52;;;11.50;75.12
72096;BME280;59968;51.084;16.748;2022-12-31T07:48:52;100019.95;;;11.54;75.09
72096;BME280;59968;51.084;16.748;2022-12-31T07:51:20;100026.18;;;11.58;75.08
72096;BME280;59968;51.084;16.748;2022-12-31T07:53:47;100025.50;;;11.62;74.96
72096;BME280;59968;51.084;16.748;2022-12-31T07:56:14;100016.73;;;11.64;75.03
72096;BME280;59968;51.084;16.748;2022-12-31T08:01:28;100036.34;;;11.75;74.99
72096;BME280;59968;51.084;16.748;2022-12-31T08:04:04;100042.16;;;11.78;74.91
72096;BME280;59968;51.084;16.748;2022-12-31T08:07:25;100046.16;;;11.82;74.81
72096;BME280;59968;51.084;16.748;2022-12-31T08:12:32;100049.79;;;12.00;74.40
72096;BME280;59968;51.084;16.748;2022-12-31T08:15:00;100043.51;;;12.04;74.10
72096;BME280;59968;51.084;16.748;2022-12-31T08:17:28;100044.14;;;12.08;74.07
72096;BME280;59968;51.084;16.748;2022-12-31T08:19:55;100039.45;;;12.11;73.88
72096;BME280;59968;51.084;16.748;2022-12-31T08:25:23;100033.83;;;12.16;73.74
72096;BME280;59968;51.084;16.748;2022-12-31T08:41:21;100038.41;;;12.58;73.39
72096;BME280;59968;51.084;16.748;2022-12-31T08:49:30;100025.41;;;12.90;72.73
72096;BME280;59968;51.084;16.748;2022-12-31T08:51:59;100023.02;;;13.01;72.55
72096;BME280;59968;51.084;16.748;2022-12-31T08:54:28;100008.67;;;13.06;72.07
72096;BME280;59968;51.084;16.748;2022-12-31T08:57:29;100009.74;;;13.23;71.95
72096;BME280;59968;51.084;16.748;2022-12-31T09:00:06;100013.13;;;13.35;71.66
72096;BME280;59968;51.084;16.748;2022-12-31T09:02:46;100010.41;;;13.44;71.25
72096;BME280;59968;51.084;16.748;2022-12-31T09:05:23;100005.42;;;13.54;71.07
72096;BME280;59968;51.084;16.748;2022-12-31T09:08:28;100007.96;;;13.60;70.82
72096;BME280;59968;51.084;16.748;2022-12-31T09:13:55;100009.58;;;13.72;70.32
72096;BME280;59968;51.084;16.748;2022-12-31T09:18:50;100021.76;;;13.84;69.88
72096;BME280;59968;51.084;16.748;2022-12-31T09:21:18;100015.97;;;13.89;69.89
72096;BME280;59968;51.084;16.748;2022-12-31T09:23:45;100020.44;;;13.95;69.80
72096;BME280;59968;51.084;16.748;2022-12-31T09:26:35;100019.75;;;13.99;69.53
72096;BME280;59968;51.084;16.748;2022-12-31T09:35:02;100019.83;;;14.18;69.22
72096;BME280;59968;51.084;16.748;2022-12-31T09:37:51;100016.45;;;14.21;69.10
72096;BME280;59968;51.084;16.748;2022-12-31T09:40:39;100013.21;;;14.19;69.22
72096;BME280;59968;51.084;16.748;2022-12-31T09:48:53;100011.88;;;14.40;69.09
72096;BME280;59968;51.084;16.748;2022-12-31T09:56:42;100025.63;;;14.64;68.92
72096;BME280;59968;51.084;16.748;2022-12-31T09:59:34;100024.41;;;14.72;68.89
72096;BME280;59968;51.084;16.748;2022-12-31T10:10:26;100005.10;;;14.90;68.45
72096;BME280;59968;51.084;16.748;2022-12-31T10:18:22;100000.46;;;15.02;68.33
72096;BME280;59968;51.084;16.748;2022-12-31T10:21:27;99987.13;;;15.05;68.13
72096;BME280;59968;51.084;16.748;2022-12-31T10:32:33;99995.38;;;15.30;67.27
72096;BME280;59968;51.084;16.748;2022-12-31T11:01:09;99994.63;;;15.52;65.86
72096;BME280;59968;51.084;16.748;2022-12-31T11:04:17;99998.91;;;15.53;66.09
72096;BME280;59968;51.084;16.748;2022-12-31T11:07:21;99990.80;;;15.48;65.83
72096;BME280;59968;51.084;16.748;2022-12-31T11:12:51;100000.59;;;15.56;65.92
72096;BME280;59968;51.084;16.748;2022-12-31T11:18:16;99988.16;;;15.61;65.79
72096;BME280;59968;51.084;16.748;2022-12-31T11:57:50;99951.35;;;16.27;64.14
72096;BME280;59968;51.084;16.748;2022-12-31T12:00:25;99953.16;;;16.29;64.11
72096;BME280;59968;51.084;16.748;2022-12-31T12:03:01;99946.39;;;16.31;63.75
72096;BME280;59968;51.084;16.748;2022-12-31T12:05:30;99955.24;;;16.34;63.79
72096;BME280;59968;51.084;16.748;2022-12-31T12:08:00;99957.61;;;16.37;63.82
72096;BME280;59968;51.084;16.748;2022-12-31T12:13:13;99955.78;;;16.43;63.64
72096;BME280;59968;51.084;16.748;2022-12-31T12:15:48;99959.77;;;16.44;63.62
72096;BME280;59968;51.084;16.748;2022-12-31T12:18:26;99959.63;;;16.45;63.60
72096;BME280;59968;51.084;16.748;2022-12-31T12:21:24;99959.73;;;16.45;63.40
72096;BME280;59968;51.084;16.748;2022-12-31T12:24:18;99964.11;;;16.44;63.38
72096;BME280;59968;51.084;16.748;2022-12-31T12:26:45;99963.50;;;16.45;63.54
72096;BME280;59968;51.084;16.748;2022-12-31T12:32:18;99977.89;;;16.47;63.40
72096;BME280;59968;51.084;16.748;2022-12-31T12:34:46;99981.25;;;16.50;63.25
72096;BME280;59968;51.084;16.748;2022-12-31T12:40:16;99981.31;;;16.56;63.35
72096;BME280;59968;51.084;16.748;2022-12-31T12:42:47;99991.36;;;16.58;63.27
72096;BME280;59968;51.084;16.748;2022-12-31T12:45:19;99986.27;;;16.58;63.17
72096;BME280;59968;51.084;16.748;2022-12-31T12:47:52;99988.39;;;16.56;63.09
72096;BME280;59968;51.084;16.748;2022-12-31T12:50:24;99988.16;;;16.54;63.01
72096;BME280;59968;51.084;16.748;2022-12-31T12:56:15;99990.01;;;16.49;63.09
72096;BME280;59968;51.084;16.748;2022-12-31T13:02:21;99987.27;;;16.42;63.29
72096;BME280;59968;51.084;16.748;2022-12-31T13:04:49;99993.92;;;16.40;63.38
72096;BME280;59968;51.084;16.748;2022-12-31T13:10:14;99996.45;;;16.37;63.72
72096;BME280;59968;51.084;16.748;2022-12-31T13:18:58;99992.97;;;16.33;63.83
72096;BME280;59968;51.084;16.748;2022-12-31T13:21:31;99994.27;;;16.27;64.22
72096;BME280;59968;51.084;16.748;2022-12-31T13:29:45;99994.20;;;16.19;64.41
72096;BME280;59968;51.084;16.748;2022-12-31T13:32:20;99997.15;;;16.22;64.54
72096;BME280;59968;51.084;16.748;2022-12-31T13:34:55;100005.11;;;16.23;64.46
72096;BME280;59968;51.084;16.748;2022-12-31T13:37:27;100004.00;;;16.23;64.43
72096;BME280;59968;51.084;16.748;2022-12-31T13:40:05;100008.16;;;16.17;64.63
72096;BME280;59968;51.084;16.748;2022-12-31T13:42:38;100013.29;;;16.19;64.80
72096;BME280;59968;51.084;16.748;2022-12-31T13:45:15;100014.73;;;16.22;64.63
72096;BME280;59968;51.084;16.748;2022-12-31T13:47:56;100009.80;;;16.22;64.66
72096;BME280;59968;51.084;16.748;2022-12-31T13:50:35;100015.31;;;16.22;64.67
72096;BME280;59968;51.084;16.748;2022-12-31T13:53:14;100018.34;;;16.22;64.72
72096;BME280;59968;51.084;16.748;2022-12-31T13:58:41;100028.02;;;16.22;64.89
72096;BME280;59968;51.084;16.748;2022-12-31T14:06:45;100026.28;;;16.18;64.94
72096;BME280;59968;51.084;16.748;2022-12-31T14:09:25;100033.39;;;16.15;65.17
72096;BME280;59968;51.084;16.748;2022-12-31T14:20:46;100042.50;;;16.08;65.47
72096;BME280;59968;51.084;16.748;2022-12-31T14:29:29;100042.71;;;16.02;65.78
72096;BME280;59968;51.084;16.748;2022-12-31T14:52:21;100050.87;;;15.91;66.50
72096;BME280;59968;51.084;16.748;2022-12-31T14:57:38;100054.57;;;15.89;66.55
72096;BME280;59968;51.084;16.748;2022-12-31T15:05:34;100053.70;;;15.95;66.53
72096;BME280;59968;51.084;16.748;2022-12-31T15:11:29;100047.02;;;15.99;66.41
72096;BME280;59968;51.084;16.748;2022-12-31T15:24:29;100040.19;;;16.12;66.11
72096;BME280;59968;51.084;16.748;2022-12-31T15:26:59;100041.94;;;16.13;65.86
72096;BME280;59968;51.084;16.748;2022-12-31T15:29:41;100043.52;;;16.14;65.92
72096;BME280;59968;51.084;16.748;2022-12-31T15:32:18;100049.13;;;16.15;65.91
72096;BME280;59968;51.084;16.748;2022-12-31T15:34:46;100054.60;;;16.13;65.84
72096;BME280;59968;51.084;16.748;2022-12-31T15:37:34;100052.02;;;16.12;65.99
72096;BME280;59968;51.084;16.748;2022-12-31T15:40:18;100053.64;;;16.13;66.02
72096;BME280;59968;51.084;16.748;2022-12-31T15:42:49;100057.51;;;16.09;65.90
72096;BME280;59968;51.084;16.748;2022-12-31T15:45:23;100065.95;;;16.07;66.11
72096;BME280;59968;51.084;16.748;2022-12-31T15:47:58;100072.61;;;16.08;66.11
72096;BME280;59968;51.084;16.748;2022-12-31T15:50:26;100075.64;;;16.06;66.04
72096;BME280;59968;51.084;16.748;2022-12-31T15:52:57;100076.23;;;16.05;66.24
72096;BME280;59968;51.084;16.748;2022-12-31T15:55:31;100080.41;;;16.06;66.11
72096;BME280;59968;51.084;16.748;2022-12-31T15:58:08;100085.87;;;16.07;66.26
72096;BME280;59968;51.084;16.748;2022-12-31T16:03:28;100092.98;;;16.05;66.21
72096;BME280;59968;51.084;16.748;2022-12-31T16:06:22;100096.54;;;16.05;66.14
72096;BME280;59968;51.084;16.748;2022-12-31T16:08:52;100101.27;;;16.06;66.12
72096;BME280;59968;51.084;16.748;2022-12-31T16:11:25;100098.92;;;16.04;66.27
72096;BME280;59968;51.084;16.748;2022-12-31T16:13:57;100103.30;;;16.05;66.16
72096;BME280;59968;51.084;16.748;2022-12-31T16:16:28;100111.73;;;16.06;66.17
72096;BME280;59968;51.084;16.748;2022-12-31T16:18:58;100116.13;;;16.06;66.14
72096;BME280;59968;51.084;16.748;2022-12-31T16:21:35;100117.20;;;16.07;66.20
72096;BME280;59968;51.084;16.748;2022-12-31T16:24:28;100120.30;;;16.05;66.18
72096;BME280;59968;51.084;16.748;2022-12-31T16:27:03;100112.43;;;15.97;66.09
72096;BME280;59968;51.084;16.748;2022-12-31T16:29:40;100128.48;;;16.04;66.15
72096;BME280;59968;51.084;16.748;2022-12-31T16:32:14;100128.36;;;16.02;66.20
72096;BME280;59968;51.084;16.748;2022-12-31T16:34:43;100123.17;;;16.00;66.16
72096;BME280;59968;51.084;16.748;2022-12-31T16:37:17;100127.33;;;15.99;66.23
72096;BME280;59968;51.084;16.748;2022-12-31T16:42:26;100122.91;;;15.96;66.49
72096;BME280;59968;51.084;16.748;2022-12-31T16:44:56;100126.88;;;15.92;66.29
72096;BME280;59968;51.084;16.748;2022-12-31T16:47:34;100130.34;;;15.91;66.35
72096;BME280;59968;51.084;16.748;2022-12-31T16:50:11;100132.59;;;15.91;66.35
72096;BME280;59968;51.084;16.748;2022-12-31T16:52:46;100127.85;;;15.92;66.34
72096;BME280;59968;51.084;16.748;2022-12-31T16:55:21;100126.31;;;15.91;66.46
72096;BME280;59968;51.084;16.748;2022-12-31T16:57:59;100130.64;;;15.90;66.43
72096;BME280;59968;51.084;16.748;2022-12-31T17:00:30;100132.61;;;15.90;66.48
72096;BME280;59968;51.084;16.748;2022-12-31T17:03:09;100132.98;;;15.88;66.49
72096;BME280;59968;51.084;16.748;2022-12-31T17:08:41;100131.80;;;15.82;66.65
72096;BME280;59968;51.084;16.748;2022-12-31T17:14:21;100139.20;;;15.72;66.90
72096;BME280;59968;51.084;16.748;2022-12-31T17:16:55;100143.36;;;15.69;66.83
72096;BME280;59968;51.084;16.748;2022-12-31T17:19:45;100141.79;;;15.66;67.15
72096;BME280;59968;51.084;16.748;2022-12-31T17:22:31;100147.74;;;15.64;67.16
72096;BME280;59968;51.084;16.748;2022-12-31T17:27:59;100151.09;;;15.58;67.44
72096;BME280;59968;51.084;16.748;2022-12-31T17:35:31;100151.33;;;15.61;67.50
72096;BME280;59968;51.084;16.748;2022-12-31T17:43:22;100155.35;;;15.71;67.34
72096;BME280;59968;51.084;16.748;2022-12-31T17:45:50;100160.92;;;15.75;67.23
72096;BME280;59968;51.084;16.748;2022-12-31T17:48:22;100166.95;;;15.77;67.23
72096;BME280;59968;51.084;16.748;2022-12-31T17:50:57;100175.68;;;15.82;67.19
72096;BME280;59968;51.084;16.748;2022-12-31T17:53:25;100182.15;;;15.85;66.90
72096;BME280;59968;51.084;16.748;2022-12-31T17:55:55;100185.88;;;15.88;66.88
72096;BME280;59968;51.084;16.748;2022-12-31T18:00:57;100180.04;;;15.93;66.67
72096;BME280;59968;51.084;16.748;2022-12-31T18:03:25;100184.10;;;15.94;66.72
72096;BME280;59968;51.084;16.748;2022-12-31T18:05:53;100189.01;;;15.94;66.68
72096;BME280;59968;51.084;16.748;2022-12-31T18:08:21;100189.80;;;15.95;66.48
72096;BME280;59968;51.084;16.748;2022-12-31T18:10:49;100181.95;;;15.95;66.60
72096;BME280;59968;51.084;16.748;2022-12-31T18:13:21;100188.37;;;15.94;66.60
72096;BME280;59968;51.084;16.748;2022-12-31T18:15:51;100186.12;;;15.96;66.45
72096;BME280;59968;51.084;16.748;2022-12-31T18:18:29;100193.70;;;15.98;66.41
72096;BME280;59968;51.084;16.748;2022-12-31T18:21:04;100190.92;;;15.98;66.43
72096;BME280;59968;51.084;16.748;2022-12-31T18:23:37;100195.56;;;15.97;66.36
72096;BME280;59968;51.084;16.748;2022-12-31T18:26:14;100193.39;;;15.94;66.47
72096;BME280;59968;51.084;16.748;2022-12-31T18:28:44;100192.69;;;15.91;66.40
72096;BME280;59968;51.084;16.748;2022-12-31T18:31:17;100189.27;;;15.88;66.52
72096;BME280;59968;51.084;16.748;2022-12-31T18:33:46;100188.76;;;15.84;66.57
72096;BME280;59968;51.084;16.748;2022-12-31T18:36:15;100186.83;;;15.80;66.74